Terminal Aerodrome Forecast
Issued by NWS

Home | Current Version | Previous Version | Text Only | Print | Product List | Glossary On
Versions: 1 2 3 4 5 6 7 8 9 10 11 12 13 14 15 16
263
FTUS43 KAPX 261727
TAFTVC
TAF
KTVC 261727Z 2618/2718 15012G19KT P6SM FEW050 BKN090
     FM261900 17013G25KT P6SM VCSH BKN050
      TEMPO 2619/2621 3SM -SHRA OVC025
     FM270100 17006KT P6SM VCSH OVC040
     FM270500 18005KT P6SM VCSH OVC020 WS015/17035KT
     FM271300 16008KT P6SM VCSH BKN040
     FM271700 21011G24KT P6SM VCSH BKN015=

USA.gov is the U.S. government's official web portal to all federal, state and local government web resources and services.